Offenbach, Germany

7:40 PM CEST on April 27, 2015 (GMT +0200)
Frankfurt / Main | | Change Station
CLOSE
Current Station
Airport
Location: Frankfurt,
Elevation: 371 ft
Nearby Weather Stations

Elev 371 ft 50.04 °N, 8.60 °E | Updated 20 minutes ago

Light Rain
Light Rain
50 °F
Feels Like 50 °F
N
16
Wind Variable Wind from North

Today
High -- | Low -- °F
--% Chance of Precip.
Yesterday
High -- | Low -- °F
Precip. -- in
6:09 AM 8:37 PM
Waxing Gibbous, 66% visible
Pressure 29.65 in
Visibility 6.2 miles
Clouds Few 1200 ft
Scattered Clouds 1600 ft
Overcast 5200 ft
Dew Point 45 °F
Humidity 82%
Rainfall 0.00 in
Snow Depth Not available.
UV 0 out of 12
Pollen Not available.
Air Quality Not available.
Flu Activity Not available.
METAR EDDF 271720Z 01014KT 9999 -RA FEW012 SCT016 OVC052 10/07 Q1004 NOSIG

More Conditions Fewer Conditions

Pressure 29.65 in
Visibility 6.2 miles
Clouds Few 1200 ft
Scattered Clouds 1600 ft
Overcast 5200 ft
Dew Point 45 °F
Humidity 82%
Rainfall 0.00 in
Snow Depth Not available.
UV 0 out of 12
Pollen Not available.
Air Quality Not available.
Flu Activity Not available.
METAR EDDF 271720Z 01014KT 9999 -RA FEW012 SCT016 OVC052 10/07 Q1004 NOSIG

More Conditions Fewer Conditions

10-Day Weather Forecast

Almanac

Astronomy

Apr. 27, 2015 Rise Set
Actual Time
Civil Twilight
Nautical Twilight
Astronomical Twilight
Moon
Length of Visible Light
Length of Day
Tomorrow will be .
, % of the Moon is Illuminated

Today's Extremes

Country Highs Country Lows

Community

WunderPhotos

Upload Photos

1,817,367 photos uploaded!

WunderBlogs® & News

Nearby

Air Quality

  Air Quality AQ Index Pollutant
Not available.

Snow Depth

Station Depth Elevation

Earthquake Activity

City Distance Mag. Time & Date
Minimum magnitude displayed is 2.5.

Coastal Water Temperatures

Place Temperature

Stations

Nearby Weather Stations

Station Location Temp. Windchill Dew Point Humidity Wind Precip. Elev Updated Type